TEZ weather

Tezpur Airport
Assam, India

Public forecast

Using degrees Celsius for public forecast. Weather courtesy of forecast.io.

METAR (pilot weather report)

Closest report is Lokpriya Gopinath Bordoloi International Airport, 73.9 nm (136.9 km) WSW. Retrieved 2019/08/22 07:30 UTC (27 minutes ago):

VEGT 220730Z 02010KT 5000 HZ FEW020 SCT100 35/28 Q1001 NOSIG

TAF (pilot weather forecast)

Retrieved 2019/08/22 06:30 UTC (1 hour ago):

TAF VETZ 220330Z 2206/2218 VRB02KT 5000 BR SCT010 SCT015 BKN090 BECMG 2210/2212 12007KT 6000 -TSRA SCT015 SCT020 FEW030TCU BKN080